sensor_id;sensor_type;location;lat;lon;timestamp;P1;durP1;ratioP1;P2;durP2;ratioP2
21729;SDS011;11027;51.030;13.812;2023-05-07T00:00:58;15.40;;;11.35;;
21729;SDS011;11027;51.030;13.812;2023-05-07T00:03:24;13.95;;;10.90;;
21729;SDS011;11027;51.030;13.812;2023-05-07T00:05:51;12.93;;;9.65;;
21729;SDS011;11027;51.030;13.812;2023-05-07T00:08:17;12.30;;;9.27;;
21729;SDS011;11027;51.030;13.812;2023-05-07T00:10:43;12.55;;;9.80;;
21729;SDS011;11027;51.030;13.812;2023-05-07T00:13:08;12.93;;;9.55;;
21729;SDS011;11027;51.030;13.812;2023-05-07T00:15:34;11.43;;;9.38;;
21729;SDS011;11027;51.030;13.812;2023-05-07T00:17:59;13.13;;;9.88;;
21729;SDS011;11027;51.030;13.812;2023-05-07T00:20:24;11.95;;;9.77;;
21729;SDS011;11027;51.030;13.812;2023-05-07T00:22:50;11.52;;;9.57;;
21729;SDS011;11027;51.030;13.812;2023-05-07T00:25:15;11.20;;;9.15;;
21729;SDS011;11027;51.030;13.812;2023-05-07T00:27:40;14.23;;;10.73;;
21729;SDS011;11027;51.030;13.812;2023-05-07T00:30:06;15.98;;;11.40;;
21729;SDS011;11027;51.030;13.812;2023-05-07T00:32:31;17.75;;;11.80;;
21729;SDS011;11027;51.030;13.812;2023-05-07T00:34:57;16.35;;;11.18;;
21729;SDS011;11027;51.030;13.812;2023-05-07T00:37:22;16.02;;;12.32;;
21729;SDS011;11027;51.030;13.812;2023-05-07T00:39:47;13.98;;;12.02;;
21729;SDS011;11027;51.030;13.812;2023-05-07T00:42:12;15.50;;;11.63;;
21729;SDS011;11027;51.030;13.812;2023-05-07T00:44:39;15.70;;;11.60;;
21729;SDS011;11027;51.030;13.812;2023-05-07T00:47:05;14.50;;;11.73;;
21729;SDS011;11027;51.030;13.812;2023-05-07T00:49:48;15.88;;;11.93;;
21729;SDS011;11027;51.030;13.812;2023-05-07T00:52:14;17.27;;;13.75;;
21729;SDS011;11027;51.030;13.812;2023-05-07T00:54:42;17.33;;;13.48;;
21729;SDS011;11027;51.030;13.812;2023-05-07T00:57:09;17.00;;;12.32;;
21729;SDS011;11027;51.030;13.812;2023-05-07T00:59:35;19.23;;;14.25;;
21729;SDS011;11027;51.030;13.812;2023-05-07T01:02:01;17.83;;;13.77;;
21729;SDS011;11027;51.030;13.812;2023-05-07T01:04:26;19.73;;;13.75;;
21729;SDS011;11027;51.030;13.812;2023-05-07T01:06:52;18.15;;;13.63;;
21729;SDS011;11027;51.030;13.812;2023-05-07T01:09:21;18.85;;;13.73;;
21729;SDS011;11027;51.030;13.812;2023-05-07T01:11:47;18.63;;;13.25;;
21729;SDS011;11027;51.030;13.812;2023-05-07T01:14:14;19.23;;;13.13;;
21729;SDS011;11027;51.030;13.812;2023-05-07T01:16:40;17.30;;;13.00;;
21729;SDS011;11027;51.030;13.812;2023-05-07T01:19:06;18.00;;;13.25;;
21729;SDS011;11027;51.030;13.812;2023-05-07T01:21:33;15.82;;;12.05;;
21729;SDS011;11027;51.030;13.812;2023-05-07T01:23:59;15.13;;;11.45;;
21729;SDS011;11027;51.030;13.812;2023-05-07T01:26:25;16.70;;;12.18;;
21729;SDS011;11027;51.030;13.812;2023-05-07T01:28:50;15.40;;;12.25;;
21729;SDS011;11027;51.030;13.812;2023-05-07T01:31:16;16.45;;;11.95;;
21729;SDS011;11027;51.030;13.812;2023-05-07T01:33:42;17.42;;;12.50;;
21729;SDS011;11027;51.030;13.812;2023-05-07T01:36:09;14.27;;;11.77;;
21729;SDS011;11027;51.030;13.812;2023-05-07T01:38:36;14.20;;;11.63;;
21729;SDS011;11027;51.030;13.812;2023-05-07T01:41:03;13.55;;;11.50;;
21729;SDS011;11027;51.030;13.812;2023-05-07T01:43:29;15.70;;;12.10;;
21729;SDS011;11027;51.030;13.812;2023-05-07T01:45:55;14.10;;;11.63;;
21729;SDS011;11027;51.030;13.812;2023-05-07T01:48:22;15.10;;;11.98;;
21729;SDS011;11027;51.030;13.812;2023-05-07T01:50:49;15.68;;;12.43;;
21729;SDS011;11027;51.030;13.812;2023-05-07T01:53:15;17.52;;;12.10;;
21729;SDS011;11027;51.030;13.812;2023-05-07T01:55:40;14.65;;;12.20;;
21729;SDS011;11027;51.030;13.812;2023-05-07T01:58:06;14.85;;;12.02;;
21729;SDS011;11027;51.030;13.812;2023-05-07T02:00:31;14.77;;;12.18;;
21729;SDS011;11027;51.030;13.812;2023-05-07T02:02:56;15.57;;;12.25;;
21729;SDS011;11027;51.030;13.812;2023-05-07T02:05:22;14.88;;;12.27;;
21729;SDS011;11027;51.030;13.812;2023-05-07T02:07:47;16.50;;;12.07;;
21729;SDS011;11027;51.030;13.812;2023-05-07T02:10:12;16.52;;;13.23;;
21729;SDS011;11027;51.030;13.812;2023-05-07T02:12:38;14.32;;;12.15;;
21729;SDS011;11027;51.030;13.812;2023-05-07T02:15:03;14.25;;;12.13;;
21729;SDS011;11027;51.030;13.812;2023-05-07T02:17:28;13.02;;;11.63;;
21729;SDS011;11027;51.030;13.812;2023-05-07T02:19:56;15.63;;;11.95;;
21729;SDS011;11027;51.030;13.812;2023-05-07T02:22:22;13.85;;;11.98;;
21729;SDS011;11027;51.030;13.812;2023-05-07T02:24:47;14.63;;;12.18;;
21729;SDS011;11027;51.030;13.812;2023-05-07T02:27:12;15.95;;;13.00;;
21729;SDS011;11027;51.030;13.812;2023-05-07T02:29:37;16.35;;;13.60;;
21729;SDS011;11027;51.030;13.812;2023-05-07T02:32:03;17.83;;;14.43;;
21729;SDS011;11027;51.030;13.812;2023-05-07T02:34:28;16.75;;;14.02;;
21729;SDS011;11027;51.030;13.812;2023-05-07T02:36:53;18.05;;;13.30;;
21729;SDS011;11027;51.030;13.812;2023-05-07T02:39:18;16.85;;;13.40;;
21729;SDS011;11027;51.030;13.812;2023-05-07T02:41:44;17.52;;;13.13;;
21729;SDS011;11027;51.030;13.812;2023-05-07T02:44:09;16.67;;;13.13;;
21729;SDS011;11027;51.030;13.812;2023-05-07T02:46:34;14.38;;;12.00;;
21729;SDS011;11027;51.030;13.812;2023-05-07T02:48:59;14.25;;;11.43;;
21729;SDS011;11027;51.030;13.812;2023-05-07T02:51:25;12.25;;;9.27;;
21729;SDS011;11027;51.030;13.812;2023-05-07T02:53:51;11.07;;;8.85;;
21729;SDS011;11027;51.030;13.812;2023-05-07T02:56:16;10.73;;;8.55;;
21729;SDS011;11027;51.030;13.812;2023-05-07T02:58:41;9.23;;;7.88;;
21729;SDS011;11027;51.030;13.812;2023-05-07T03:01:07;10.77;;;8.40;;
21729;SDS011;11027;51.030;13.812;2023-05-07T03:03:33;10.02;;;8.27;;
21729;SDS011;11027;51.030;13.812;2023-05-07T03:05:59;11.45;;;8.23;;
21729;SDS011;11027;51.030;13.812;2023-05-07T03:08:24;10.80;;;8.13;;
21729;SDS011;11027;51.030;13.812;2023-05-07T03:10:49;10.07;;;8.73;;
21729;SDS011;11027;51.030;13.812;2023-05-07T03:13:15;10.18;;;7.88;;
21729;SDS011;11027;51.030;13.812;2023-05-07T03:15:40;9.10;;;7.63;;
21729;SDS011;11027;51.030;13.812;2023-05-07T03:18:06;9.50;;;7.80;;
21729;SDS011;11027;51.030;13.812;2023-05-07T03:20:31;10.77;;;7.82;;
21729;SDS011;11027;51.030;13.812;2023-05-07T03:22:56;12.25;;;8.98;;
21729;SDS011;11027;51.030;13.812;2023-05-07T03:25:22;11.30;;;8.80;;
21729;SDS011;11027;51.030;13.812;2023-05-07T03:27:47;13.13;;;9.15;;
21729;SDS011;11027;51.030;13.812;2023-05-07T03:30:12;13.05;;;9.40;;
21729;SDS011;11027;51.030;13.812;2023-05-07T03:32:37;12.27;;;9.80;;
21729;SDS011;11027;51.030;13.812;2023-05-07T03:35:03;13.38;;;9.73;;
21729;SDS011;11027;51.030;13.812;2023-05-07T03:37:28;12.98;;;9.00;;
21729;SDS011;11027;51.030;13.812;2023-05-07T03:39:53;14.27;;;10.10;;
21729;SDS011;11027;51.030;13.812;2023-05-07T03:42:19;13.68;;;9.73;;
21729;SDS011;11027;51.030;13.812;2023-05-07T03:44:44;14.57;;;10.27;;
21729;SDS011;11027;51.030;13.812;2023-05-07T03:47:09;13.63;;;10.68;;
21729;SDS011;11027;51.030;13.812;2023-05-07T03:49:35;14.18;;;10.48;;
21729;SDS011;11027;51.030;13.812;2023-05-07T03:52:00;15.52;;;11.07;;
21729;SDS011;11027;51.030;13.812;2023-05-07T03:54:26;16.67;;;12.35;;
21729;SDS011;11027;51.030;13.812;2023-05-07T03:56:51;15.60;;;11.38;;
21729;SDS011;11027;51.030;13.812;2023-05-07T03:59:16;16.20;;;11.93;;
21729;SDS011;11027;51.030;13.812;2023-05-07T04:01:41;16.90;;;11.82;;
21729;SDS011;11027;51.030;13.812;2023-05-07T04:04:07;17.50;;;11.50;;
21729;SDS011;11027;51.030;13.812;2023-05-07T04:06:32;16.02;;;11.95;;
21729;SDS011;11027;51.030;13.812;2023-05-07T04:08:57;14.85;;;11.38;;
21729;SDS011;11027;51.030;13.812;2023-05-07T04:11:23;16.88;;;11.85;;
21729;SDS011;11027;51.030;13.812;2023-05-07T04:13:48;14.70;;;11.00;;
21729;SDS011;11027;51.030;13.812;2023-05-07T04:16:13;15.32;;;11.15;;
21729;SDS011;11027;51.030;13.812;2023-05-07T04:18:39;15.82;;;11.90;;
21729;SDS011;11027;51.030;13.812;2023-05-07T04:21:04;14.48;;;11.57;;
21729;SDS011;11027;51.030;13.812;2023-05-07T04:23:30;15.23;;;11.63;;
21729;SDS011;11027;51.030;13.812;2023-05-07T04:25:55;14.35;;;10.90;;
21729;SDS011;11027;51.030;13.812;2023-05-07T04:28:20;15.30;;;11.65;;
21729;SDS011;11027;51.030;13.812;2023-05-07T04:30:46;17.17;;;12.30;;
21729;SDS011;11027;51.030;13.812;2023-05-07T04:33:11;13.98;;;11.05;;
21729;SDS011;11027;51.030;13.812;2023-05-07T04:35:36;18.02;;;12.10;;
21729;SDS011;11027;51.030;13.812;2023-05-07T04:38:02;14.05;;;11.13;;
21729;SDS011;11027;51.030;13.812;2023-05-07T04:40:27;18.13;;;11.60;;
21729;SDS011;11027;51.030;13.812;2023-05-07T04:42:52;15.35;;;10.82;;
21729;SDS011;11027;51.030;13.812;2023-05-07T04:45:18;14.43;;;10.27;;
21729;SDS011;11027;51.030;13.812;2023-05-07T04:47:43;14.90;;;11.80;;
21729;SDS011;11027;51.030;13.812;2023-05-07T04:50:09;14.98;;;11.38;;
21729;SDS011;11027;51.030;13.812;2023-05-07T04:52:35;15.10;;;10.52;;
21729;SDS011;11027;51.030;13.812;2023-05-07T04:55:00;13.73;;;9.90;;
21729;SDS011;11027;51.030;13.812;2023-05-07T04:57:26;13.30;;;9.85;;
21729;SDS011;11027;51.030;13.812;2023-05-07T04:59:52;13.75;;;10.43;;
21729;SDS011;11027;51.030;13.812;2023-05-07T05:02:17;13.45;;;10.10;;
21729;SDS011;11027;51.030;13.812;2023-05-07T05:04:43;13.07;;;9.85;;
21729;SDS011;11027;51.030;13.812;2023-05-07T05:07:08;13.80;;;10.23;;
21729;SDS011;11027;51.030;13.812;2023-05-07T05:09:33;13.52;;;10.23;;
21729;SDS011;11027;51.030;13.812;2023-05-07T05:11:59;13.15;;;9.68;;
21729;SDS011;11027;51.030;13.812;2023-05-07T05:14:24;14.15;;;9.55;;
21729;SDS011;11027;51.030;13.812;2023-05-07T05:16:49;15.40;;;11.30;;
21729;SDS011;11027;51.030;13.812;2023-05-07T05:19:14;15.70;;;11.18;;
21729;SDS011;11027;51.030;13.812;2023-05-07T05:21:40;14.07;;;11.02;;
21729;SDS011;11027;51.030;13.812;2023-05-07T05:24:05;16.05;;;11.27;;
21729;SDS011;11027;51.030;13.812;2023-05-07T05:26:30;15.18;;;10.70;;
21729;SDS011;11027;51.030;13.812;2023-05-07T05:28:56;14.88;;;10.63;;
21729;SDS011;11027;51.030;13.812;2023-05-07T05:31:21;14.07;;;10.10;;
21729;SDS011;11027;51.030;13.812;2023-05-07T05:33:46;13.60;;;10.13;;
21729;SDS011;11027;51.030;13.812;2023-05-07T05:36:12;13.48;;;10.63;;
21729;SDS011;11027;51.030;13.812;2023-05-07T05:38:38;14.10;;;9.98;;
21729;SDS011;11027;51.030;13.812;2023-05-07T05:41:03;11.02;;;9.15;;
21729;SDS011;11027;51.030;13.812;2023-05-07T05:43:29;12.02;;;9.68;;
21729;SDS011;11027;51.030;13.812;2023-05-07T05:45:55;11.88;;;9.23;;
21729;SDS011;11027;51.030;13.812;2023-05-07T05:48:20;12.95;;;9.77;;
21729;SDS011;11027;51.030;13.812;2023-05-07T05:50:46;11.23;;;8.13;;
21729;SDS011;11027;51.030;13.812;2023-05-07T05:53:11;10.75;;;8.68;;
21729;SDS011;11027;51.030;13.812;2023-05-07T05:55:36;11.50;;;8.82;;
21729;SDS011;11027;51.030;13.812;2023-05-07T05:58:01;11.68;;;8.77;;
21729;SDS011;11027;51.030;13.812;2023-05-07T06:00:27;12.73;;;8.27;;
21729;SDS011;11027;51.030;13.812;2023-05-07T06:02:53;9.40;;;7.78;;
21729;SDS011;11027;51.030;13.812;2023-05-07T06:05:18;10.40;;;8.05;;
21729;SDS011;11027;51.030;13.812;2023-05-07T06:07:43;11.02;;;7.75;;
21729;SDS011;11027;51.030;13.812;2023-05-07T06:10:08;10.32;;;7.10;;
21729;SDS011;11027;51.030;13.812;2023-05-07T06:12:34;8.68;;;6.40;;
21729;SDS011;11027;51.030;13.812;2023-05-07T06:14:59;8.60;;;7.00;;
21729;SDS011;11027;51.030;13.812;2023-05-07T06:17:24;11.07;;;6.88;;
21729;SDS011;11027;51.030;13.812;2023-05-07T06:19:50;9.00;;;6.65;;
21729;SDS011;11027;51.030;13.812;2023-05-07T06:22:16;9.75;;;7.05;;
21729;SDS011;11027;51.030;13.812;2023-05-07T06:24:42;8.07;;;5.78;;
21729;SDS011;11027;51.030;13.812;2023-05-07T06:27:07;6.85;;;5.47;;
21729;SDS011;11027;51.030;13.812;2023-05-07T06:29:32;7.63;;;5.93;;
21729;SDS011;11027;51.030;13.812;2023-05-07T06:32:08;7.97;;;5.53;;
21729;SDS011;11027;51.030;13.812;2023-05-07T06:34:34;7.50;;;5.90;;
21729;SDS011;11027;51.030;13.812;2023-05-07T06:36:59;7.53;;;5.85;;
21729;SDS011;11027;51.030;13.812;2023-05-07T06:39:24;7.35;;;5.75;;
21729;SDS011;11027;51.030;13.812;2023-05-07T06:41:50;6.13;;;5.22;;
21729;SDS011;11027;51.030;13.812;2023-05-07T06:44:15;6.78;;;5.38;;
21729;SDS011;11027;51.030;13.812;2023-05-07T06:46:40;6.57;;;5.28;;
21729;SDS011;11027;51.030;13.812;2023-05-07T06:49:06;6.75;;;5.00;;
21729;SDS011;11027;51.030;13.812;2023-05-07T06:51:32;5.93;;;5.03;;
21729;SDS011;11027;51.030;13.812;2023-05-07T06:53:57;5.38;;;4.78;;
21729;SDS011;11027;51.030;13.812;2023-05-07T06:56:22;6.57;;;5.13;;
21729;SDS011;11027;51.030;13.812;2023-05-07T06:58:48;5.82;;;5.03;;
21729;SDS011;11027;51.030;13.812;2023-05-07T07:01:13;8.48;;;5.43;;
21729;SDS011;11027;51.030;13.812;2023-05-07T07:03:38;6.60;;;5.35;;
21729;SDS011;11027;51.030;13.812;2023-05-07T07:06:04;8.88;;;7.18;;
21729;SDS011;11027;51.030;13.812;2023-05-07T07:08:29;9.05;;;6.85;;
21729;SDS011;11027;51.030;13.812;2023-05-07T07:10:54;8.30;;;6.40;;
21729;SDS011;11027;51.030;13.812;2023-05-07T07:13:20;10.85;;;8.13;;
21729;SDS011;11027;51.030;13.812;2023-05-07T07:15:45;7.85;;;6.28;;
21729;SDS011;11027;51.030;13.812;2023-05-07T07:18:10;7.57;;;6.13;;
21729;SDS011;11027;51.030;13.812;2023-05-07T07:20:36;7.88;;;6.15;;
21729;SDS011;11027;51.030;13.812;2023-05-07T07:23:01;6.65;;;5.50;;
21729;SDS011;11027;51.030;13.812;2023-05-07T07:25:26;7.70;;;5.65;;
21729;SDS011;11027;51.030;13.812;2023-05-07T07:27:51;7.03;;;5.50;;
21729;SDS011;11027;51.030;13.812;2023-05-07T07:30:17;5.90;;;4.95;;
21729;SDS011;11027;51.030;13.812;2023-05-07T07:32:42;6.18;;;5.07;;
21729;SDS011;11027;51.030;13.812;2023-05-07T07:35:07;5.85;;;5.05;;
21729;SDS011;11027;51.030;13.812;2023-05-07T07:37:33;5.32;;;4.82;;
21729;SDS011;11027;51.030;13.812;2023-05-07T07:39:59;6.82;;;4.15;;
21729;SDS011;11027;51.030;13.812;2023-05-07T07:42:24;5.57;;;4.32;;
21729;SDS011;11027;51.030;13.812;2023-05-07T07:44:50;4.22;;;3.80;;
21729;SDS011;11027;51.030;13.812;2023-05-07T07:47:15;6.88;;;5.28;;
21729;SDS011;11027;51.030;13.812;2023-05-07T07:49:40;6.22;;;5.05;;
21729;SDS011;11027;51.030;13.812;2023-05-07T07:52:05;3.90;;;3.50;;
21729;SDS011;11027;51.030;13.812;2023-05-07T07:54:31;4.93;;;3.55;;
21729;SDS011;11027;51.030;13.812;2023-05-07T07:56:56;4.03;;;3.55;;
21729;SDS011;11027;51.030;13.812;2023-05-07T07:59:21;4.63;;;3.92;;
21729;SDS011;11027;51.030;13.812;2023-05-07T08:01:47;6.68;;;3.40;;
21729;SDS011;11027;51.030;13.812;2023-05-07T08:04:14;4.80;;;4.15;;
21729;SDS011;11027;51.030;13.812;2023-05-07T08:06:40;5.38;;;3.80;;
21729;SDS011;11027;51.030;13.812;2023-05-07T08:09:05;4.25;;;3.72;;
21729;SDS011;11027;51.030;13.812;2023-05-07T08:11:30;4.75;;;3.80;;
21729;SDS011;11027;51.030;13.812;2023-05-07T08:13:56;6.85;;;5.20;;
21729;SDS011;11027;51.030;13.812;2023-05-07T08:16:21;3.97;;;3.58;;
21729;SDS011;11027;51.030;13.812;2023-05-07T08:18:46;3.92;;;3.53;;
21729;SDS011;11027;51.030;13.812;2023-05-07T08:21:12;3.88;;;3.38;;
21729;SDS011;11027;51.030;13.812;2023-05-07T08:23:37;3.92;;;3.58;;
21729;SDS011;11027;51.030;13.812;2023-05-07T08:26:02;3.45;;;2.85;;
21729;SDS011;11027;51.030;13.812;2023-05-07T08:28:27;3.60;;;3.30;;
21729;SDS011;11027;51.030;13.812;2023-05-07T08:30:53;3.15;;;2.85;;
21729;SDS011;11027;51.030;13.812;2023-05-07T08:33:18;3.92;;;3.35;;
21729;SDS011;11027;51.030;13.812;2023-05-07T08:35:43;5.35;;;2.70;;
21729;SDS011;11027;51.030;13.812;2023-05-07T08:38:09;3.83;;;3.42;;
21729;SDS011;11027;51.030;13.812;2023-05-07T08:40:36;4.28;;;3.75;;
21729;SDS011;11027;51.030;13.812;2023-05-07T08:43:05;4.88;;;3.08;;
21729;SDS011;11027;51.030;13.812;2023-05-07T08:45:30;3.40;;;2.90;;
21729;SDS011;11027;51.030;13.812;2023-05-07T08:48:01;3.45;;;3.05;;
21729;SDS011;11027;51.030;13.812;2023-05-07T08:50:28;6.30;;;4.25;;
21729;SDS011;11027;51.030;13.812;2023-05-07T08:52:54;5.40;;;4.50;;
21729;SDS011;11027;51.030;13.812;2023-05-07T08:55:19;6.53;;;5.60;;
21729;SDS011;11027;51.030;13.812;2023-05-07T08:57:45;5.40;;;4.90;;
21729;SDS011;11027;51.030;13.812;2023-05-07T09:00:12;5.20;;;4.70;;
21729;SDS011;11027;51.030;13.812;2023-05-07T09:02:37;4.88;;;4.38;;
21729;SDS011;11027;51.030;13.812;2023-05-07T09:05:03;5.95;;;5.32;;
21729;SDS011;11027;51.030;13.812;2023-05-07T09:07:28;6.07;;;5.47;;
21729;SDS011;11027;51.030;13.812;2023-05-07T09:09:55;6.38;;;5.03;;
21729;SDS011;11027;51.030;13.812;2023-05-07T09:12:22;7.28;;;5.50;;
21729;SDS011;11027;51.030;13.812;2023-05-07T09:14:47;7.22;;;5.50;;
21729;SDS011;11027;51.030;13.812;2023-05-07T09:17:15;7.28;;;5.80;;
21729;SDS011;11027;51.030;13.812;2023-05-07T09:19:40;7.30;;;6.00;;
21729;SDS011;11027;51.030;13.812;2023-05-07T09:22:06;7.80;;;5.60;;
21729;SDS011;11027;51.030;13.812;2023-05-07T09:24:34;6.95;;;5.80;;
21729;SDS011;11027;51.030;13.812;2023-05-07T09:27:02;6.05;;;4.90;;
21729;SDS011;11027;51.030;13.812;2023-05-07T09:29:28;6.75;;;6.05;;
21729;SDS011;11027;51.030;13.812;2023-05-07T09:32:05;6.25;;;5.10;;
21729;SDS011;11027;51.030;13.812;2023-05-07T09:34:32;5.60;;;4.85;;
21729;SDS011;11027;51.030;13.812;2023-05-07T09:36:58;5.55;;;4.80;;
21729;SDS011;11027;51.030;13.812;2023-05-07T09:39:25;6.88;;;6.15;;
21729;SDS011;11027;51.030;13.812;2023-05-07T09:41:51;9.10;;;5.00;;
21729;SDS011;11027;51.030;13.812;2023-05-07T09:44:19;5.40;;;4.43;;
21729;SDS011;11027;51.030;13.812;2023-05-07T09:46:45;4.72;;;4.10;;
21729;SDS011;11027;51.030;13.812;2023-05-07T09:49:13;5.10;;;4.00;;
21729;SDS011;11027;51.030;13.812;2023-05-07T09:51:49;4.70;;;4.05;;
21729;SDS011;11027;51.030;13.812;2023-05-07T09:54:16;4.75;;;3.78;;
21729;SDS011;11027;51.030;13.812;2023-05-07T09:56:42;6.68;;;4.72;;
21729;SDS011;11027;51.030;13.812;2023-05-07T09:59:13;5.15;;;4.47;;
21729;SDS011;11027;51.030;13.812;2023-05-07T10:01:40;5.85;;;5.25;;
21729;SDS011;11027;51.030;13.812;2023-05-07T10:04:07;9.52;;;5.78;;
21729;SDS011;11027;51.030;13.812;2023-05-07T10:06:36;6.47;;;5.28;;
21729;SDS011;11027;51.030;13.812;2023-05-07T10:09:02;5.32;;;4.82;;
21729;SDS011;11027;51.030;13.812;2023-05-07T10:11:30;5.07;;;4.57;;
21729;SDS011;11027;51.030;13.812;2023-05-07T10:13:57;5.63;;;5.03;;
21729;SDS011;11027;51.030;13.812;2023-05-07T10:16:23;6.82;;;5.47;;
21729;SDS011;11027;51.030;13.812;2023-05-07T10:18:50;5.50;;;5.00;;
21729;SDS011;11027;51.030;13.812;2023-05-07T10:21:19;7.20;;;5.38;;
21729;SDS011;11027;51.030;13.812;2023-05-07T10:26:18;6.43;;;5.22;;
21729;SDS011;11027;51.030;13.812;2023-05-07T10:28:46;5.57;;;5.03;;
21729;SDS011;11027;51.030;13.812;2023-05-07T10:34:14;5.22;;;4.72;;
21729;SDS011;11027;51.030;13.812;2023-05-07T10:36:45;6.70;;;5.35;;
21729;SDS011;11027;51.030;13.812;2023-05-07T10:39:11;5.80;;;5.20;;
21729;SDS011;11027;51.030;13.812;2023-05-07T10:41:38;5.50;;;4.55;;
21729;SDS011;11027;51.030;13.812;2023-05-07T10:44:04;6.50;;;5.40;;
21729;SDS011;11027;51.030;13.812;2023-05-07T10:46:29;5.60;;;5.10;;
21729;SDS011;11027;51.030;13.812;2023-05-07T10:49:06;6.15;;;5.32;;
21729;SDS011;11027;51.030;13.812;2023-05-07T10:51:31;5.00;;;4.55;;
21729;SDS011;11027;51.030;13.812;2023-05-07T10:56:35;4.75;;;4.25;;
21729;SDS011;11027;51.030;13.812;2023-05-07T11:01:52;4.70;;;4.30;;
21729;SDS011;11027;51.030;13.812;2023-05-07T11:04:18;6.72;;;4.75;;
21729;SDS011;11027;51.030;13.812;2023-05-07T11:13:02;5.00;;;4.30;;
21729;SDS011;11027;51.030;13.812;2023-05-07T11:17:32;4.95;;;4.45;;
21729;SDS011;11027;51.030;13.812;2023-05-07T11:19:59;4.80;;;4.30;;
21729;SDS011;11027;51.030;13.812;2023-05-07T11:27:30;4.43;;;4.03;;
21729;SDS011;11027;51.030;13.812;2023-05-07T11:29:56;4.47;;;4.07;;
21729;SDS011;11027;51.030;13.812;2023-05-07T11:32:24;4.53;;;4.13;;
21729;SDS011;11027;51.030;13.812;2023-05-07T11:34:52;4.22;;;3.83;;
21729;SDS011;11027;51.030;13.812;2023-05-07T11:37:18;4.55;;;4.15;;
21729;SDS011;11027;51.030;13.812;2023-05-07T11:39:44;4.45;;;4.13;;
21729;SDS011;11027;51.030;13.812;2023-05-07T11:42:28;5.18;;;4.57;;
21729;SDS011;11027;51.030;13.812;2023-05-07T11:44:54;4.65;;;4.25;;
21729;SDS011;11027;51.030;13.812;2023-05-07T11:47:20;8.38;;;4.63;;
21729;SDS011;11027;51.030;13.812;2023-05-07T11:49:49;4.75;;;4.32;;
21729;SDS011;11027;51.030;13.812;2023-05-07T11:52:16;5.70;;;4.60;;
21729;SDS011;11027;51.030;13.812;2023-05-07T11:54:52;6.18;;;4.38;;
21729;SDS011;11027;51.030;13.812;2023-05-07T11:57:19;6.38;;;4.43;;
21729;SDS011;11027;51.030;13.812;2023-05-07T11:59:45;4.95;;;4.40;;
21729;SDS011;11027;51.030;13.812;2023-05-07T12:02:13;4.32;;;3.92;;
21729;SDS011;11027;51.030;13.812;2023-05-07T12:04:39;5.28;;;4.38;;
21729;SDS011;11027;51.030;13.812;2023-05-07T12:07:04;4.88;;;4.35;;
21729;SDS011;11027;51.030;13.812;2023-05-07T12:09:32;5.95;;;4.43;;
21729;SDS011;11027;51.030;13.812;2023-05-07T12:12:02;5.15;;;4.60;;
21729;SDS011;11027;51.030;13.812;2023-05-07T12:14:28;5.00;;;4.50;;
21729;SDS011;11027;51.030;13.812;2023-05-07T12:16:54;8.18;;;4.88;;
21729;SDS011;11027;51.030;13.812;2023-05-07T12:19:19;4.82;;;4.35;;
21729;SDS011;11027;51.030;13.812;2023-05-07T12:21:45;4.63;;;4.22;;
21729;SDS011;11027;51.030;13.812;2023-05-07T12:24:10;6.70;;;4.13;;
21729;SDS011;11027;51.030;13.812;2023-05-07T12:26:39;4.68;;;4.18;;
21729;SDS011;11027;51.030;13.812;2023-05-07T12:29:05;4.72;;;4.32;;
21729;SDS011;11027;51.030;13.812;2023-05-07T12:31:30;5.35;;;4.13;;
21729;SDS011;11027;51.030;13.812;2023-05-07T12:33:56;4.57;;;4.18;;
21729;SDS011;11027;51.030;13.812;2023-05-07T12:36:21;4.53;;;3.75;;
21729;SDS011;11027;51.030;13.812;2023-05-07T12:38:46;13.43;;;5.68;;
21729;SDS011;11027;51.030;13.812;2023-05-07T12:41:15;6.22;;;4.07;;
21729;SDS011;11027;51.030;13.812;2023-05-07T12:43:43;4.60;;;3.97;;
21729;SDS011;11027;51.030;13.812;2023-05-07T12:46:10;4.10;;;3.70;;
21729;SDS011;11027;51.030;13.812;2023-05-07T12:48:36;6.32;;;4.30;;
21729;SDS011;11027;51.030;13.812;2023-05-07T12:51:02;6.40;;;3.90;;
21729;SDS011;11027;51.030;13.812;2023-05-07T12:53:28;4.50;;;4.05;;
21729;SDS011;11027;51.030;13.812;2023-05-07T12:55:55;4.88;;;3.63;;
21729;SDS011;11027;51.030;13.812;2023-05-07T12:58:28;4.25;;;3.85;;
21729;SDS011;11027;51.030;13.812;2023-05-07T13:01:03;4.32;;;3.90;;
21729;SDS011;11027;51.030;13.812;2023-05-07T13:03:31;4.35;;;3.95;;
21729;SDS011;11027;51.030;13.812;2023-05-07T13:05:58;4.07;;;3.67;;
21729;SDS011;11027;51.030;13.812;2023-05-07T13:08:26;7.13;;;3.80;;
21729;SDS011;11027;51.030;13.812;2023-05-07T13:10:52;4.88;;;3.33;;
21729;SDS011;11027;51.030;13.812;2023-05-07T13:13:18;4.22;;;3.22;;
21729;SDS011;11027;51.030;13.812;2023-05-07T13:15:44;4.10;;;3.60;;
21729;SDS011;11027;51.030;13.812;2023-05-07T13:18:10;4.20;;;3.70;;
21729;SDS011;11027;51.030;13.812;2023-05-07T13:20:36;3.75;;;3.30;;
21729;SDS011;11027;51.030;13.812;2023-05-07T13:23:01;4.38;;;3.97;;
21729;SDS011;11027;51.030;13.812;2023-05-07T13:25:29;4.13;;;3.38;;
21729;SDS011;11027;51.030;13.812;2023-05-07T13:27:54;3.90;;;3.58;;
21729;SDS011;11027;51.030;13.812;2023-05-07T13:30:19;4.00;;;3.60;;
21729;SDS011;11027;51.030;13.812;2023-05-07T13:32:44;3.85;;;3.28;;
21729;SDS011;11027;51.030;13.812;2023-05-07T13:35:12;3.60;;;3.30;;
21729;SDS011;11027;51.030;13.812;2023-05-07T13:37:37;3.63;;;3.30;;
21729;SDS011;11027;51.030;13.812;2023-05-07T13:40:03;4.15;;;3.35;;
21729;SDS011;11027;51.030;13.812;2023-05-07T13:42:29;3.85;;;3.10;;
21729;SDS011;11027;51.030;13.812;2023-05-07T13:44:55;4.00;;;3.25;;
21729;SDS011;11027;51.030;13.812;2023-05-07T13:47:21;6.03;;;4.25;;
21729;SDS011;11027;51.030;13.812;2023-05-07T13:49:47;3.95;;;3.40;;
21729;SDS011;11027;51.030;13.812;2023-05-07T13:52:14;3.35;;;3.05;;
21729;SDS011;11027;51.030;13.812;2023-05-07T13:54:39;5.15;;;3.47;;
21729;SDS011;11027;51.030;13.812;2023-05-07T13:57:05;2.90;;;2.70;;
21729;SDS011;11027;51.030;13.812;2023-05-07T13:59:30;3.30;;;2.63;;
21729;SDS011;11027;51.030;13.812;2023-05-07T14:01:55;3.15;;;2.95;;
21729;SDS011;11027;51.030;13.812;2023-05-07T14:04:21;3.78;;;3.20;;
21729;SDS011;11027;51.030;13.812;2023-05-07T14:06:46;4.70;;;2.80;;
21729;SDS011;11027;51.030;13.812;2023-05-07T14:09:12;4.80;;;2.60;;
21729;SDS011;11027;51.030;13.812;2023-05-07T14:11:38;2.60;;;2.40;;
21729;SDS011;11027;51.030;13.812;2023-05-07T14:14:03;2.72;;;2.53;;
21729;SDS011;11027;51.030;13.812;2023-05-07T14:16:28;3.67;;;2.50;;
21729;SDS011;11027;51.030;13.812;2023-05-07T14:18:54;3.35;;;2.30;;
21729;SDS011;11027;51.030;13.812;2023-05-07T14:21:19;3.10;;;2.50;;
21729;SDS011;11027;51.030;13.812;2023-05-07T14:23:44;2.20;;;2.00;;
21729;SDS011;11027;51.030;13.812;2023-05-07T14:26:10;2.40;;;2.20;;
21729;SDS011;11027;51.030;13.812;2023-05-07T14:28:35;6.43;;;3.00;;
21729;SDS011;11027;51.030;13.812;2023-05-07T14:31:00;2.70;;;2.00;;
21729;SDS011;11027;51.030;13.812;2023-05-07T14:33:25;2.28;;;1.95;;
21729;SDS011;11027;51.030;13.812;2023-05-07T14:35:51;3.20;;;2.08;;
21729;SDS011;11027;51.030;13.812;2023-05-07T14:38:16;2.85;;;1.80;;
21729;SDS011;11027;51.030;13.812;2023-05-07T14:40:41;2.47;;;2.20;;
21729;SDS011;11027;51.030;13.812;2023-05-07T14:43:06;2.92;;;2.22;;